createdAt,value
2018-02-22T00:00:49.073Z,14.57
2018-02-22T00:03:16.641Z,14.95
2018-02-22T00:05:44.298Z,12.18
2018-02-22T00:08:11.863Z,14.48
2018-02-22T00:10:39.453Z,14.85
2018-02-22T00:13:08.711Z,14.73
2018-02-22T00:15:36.322Z,12.10
2018-02-22T00:18:03.882Z,13.40
2018-02-22T00:20:32.211Z,13.62
2018-02-22T00:22:59.822Z,14.93
2018-02-22T00:25:28.150Z,14.13
2018-02-22T00:27:55.714Z,14.00
2018-02-22T00:30:23.285Z,14.80
2018-02-22T00:32:50.830Z,14.27
2018-02-22T00:35:18.389Z,14.13
2018-02-22T00:37:45.939Z,14.45
2018-02-22T00:40:13.574Z,13.95
2018-02-22T00:42:41.160Z,13.45
2018-02-22T00:45:08.813Z,13.57
2018-02-22T00:47:36.387Z,14.32
2018-02-22T00:50:04.721Z,13.98
2018-02-22T00:52:33.094Z,14.30
2018-02-22T00:55:00.663Z,13.10
2018-02-22T00:57:29.052Z,14.63
2018-02-22T00:59:56.625Z,14.25
2018-02-22T01:02:24.187Z,14.32
2018-02-22T01:04:51.750Z,14.97
2018-02-22T01:07:19.355Z,15.70
2018-02-22T01:09:46.938Z,16.75
2018-02-22T01:12:14.531Z,13.20
2018-02-22T01:14:42.199Z,13.13
2018-02-22T01:17:09.781Z,14.40
2018-02-22T01:19:37.341Z,12.95
2018-02-22T01:22:04.963Z,12.43
2018-02-22T01:24:33.348Z,13.35
2018-02-22T01:27:00.986Z,11.65
2018-02-22T01:29:28.586Z,14.57
2018-02-22T01:31:56.166Z,12.70
2018-02-22T01:34:23.737Z,13.62
2018-02-22T01:36:51.337Z,15.00
2018-02-22T01:39:19.680Z,12.80
2018-02-22T01:41:47.245Z,13.73
2018-02-22T01:44:14.821Z,12.37
2018-02-22T01:46:42.406Z,14.70
2018-02-22T01:49:09.994Z,13.57
2018-02-22T01:51:37.597Z,14.85
2018-02-22T01:54:05.157Z,15.60
2018-02-22T01:56:32.712Z,13.35
2018-02-22T01:59:00.323Z,14.52
2018-02-22T02:01:27.882Z,13.45
2018-02-22T02:03:55.441Z,15.10
2018-02-22T02:06:23.006Z,13.70
2018-02-22T02:08:50.572Z,14.18
2018-02-22T02:11:18.121Z,13.13
2018-02-22T02:13:45.704Z,14.55
2018-02-22T02:16:13.272Z,14.68
2018-02-22T02:18:40.837Z,14.05
2018-02-22T02:21:08.399Z,15.38
2018-02-22T02:23:35.954Z,13.95
2018-02-22T02:26:03.511Z,15.30
2018-02-22T02:28:31.860Z,15.23
2018-02-22T02:30:59.427Z,16.35
2018-02-22T02:33:26.988Z,16.25
2018-02-22T02:35:54.554Z,15.48
2018-02-22T02:38:22.114Z,13.23
2018-02-22T02:40:49.669Z,15.00
2018-02-22T02:43:17.257Z,18.05
2018-02-22T02:45:44.848Z,17.12
2018-02-22T02:48:12.432Z,19.10
2018-02-22T02:50:39.993Z,15.00
2018-02-22T02:53:08.370Z,16.37
2018-02-22T02:55:36.702Z,14.38
2018-02-22T02:58:04.261Z,14.63
2018-02-22T03:00:31.847Z,15.48
2018-02-22T03:02:59.402Z,14.10
2018-02-22T03:05:26.976Z,15.40
2018-02-22T03:07:55.305Z,16.70
2018-02-22T03:10:22.869Z,16.05
2018-02-22T03:12:50.456Z,14.95
2018-02-22T03:15:18.024Z,16.35
2018-02-22T03:17:45.589Z,16.85
2018-02-22T03:20:13.137Z,15.82
2018-02-22T03:22:40.718Z,16.83
2018-02-22T03:25:08.278Z,14.93
2018-02-22T03:27:36.609Z,16.60
2018-02-22T03:30:04.200Z,13.95
2018-02-22T03:32:31.757Z,15.23
2018-02-22T03:34:59.299Z,16.35
2018-02-22T03:37:26.926Z,17.55
2018-02-22T03:39:54.538Z,15.93
2018-02-22T03:42:22.114Z,19.67
2018-02-22T03:44:49.678Z,16.52
2018-02-22T03:47:18.018Z,15.52
2018-02-22T03:49:45.596Z,17.35
2018-02-22T03:52:13.214Z,17.02
2018-02-22T03:54:40.780Z,18.00
2018-02-22T03:57:08.376Z,18.27
2018-02-22T03:59:35.954Z,16.02
2018-02-22T04:02:03.548Z,17.12
2018-02-22T04:04:31.099Z,18.37
2018-02-22T04:06:58.689Z,14.50
2018-02-22T04:09:26.315Z,15.20
2018-02-22T04:11:54.682Z,16.30
2018-02-22T04:14:23.038Z,16.15
2018-02-22T04:16:50.607Z,18.00
2018-02-22T04:19:18.168Z,16.45
2018-02-22T04:21:45.801Z,15.48
2018-02-22T04:24:13.425Z,18.00
2018-02-22T04:26:40.988Z,17.17
2018-02-22T04:29:08.568Z,17.85
2018-02-22T04:31:36.182Z,18.40
2018-02-22T04:34:03.770Z,17.58
2018-02-22T04:36:31.359Z,16.55
2018-02-22T04:38:58.943Z,18.05
2018-02-22T04:41:26.505Z,17.00
2018-02-22T04:43:54.056Z,15.18
2018-02-22T04:46:21.621Z,18.02
2018-02-22T04:48:49.180Z,15.65
2018-02-22T04:51:16.748Z,18.08
2018-02-22T04:53:44.318Z,17.25
2018-02-22T04:56:11.896Z,19.67
2018-02-22T04:58:39.469Z,18.08
2018-02-22T05:01:07.802Z,18.92
2018-02-22T05:03:36.189Z,18.48
2018-02-22T05:06:03.755Z,18.37
2018-02-22T05:08:31.327Z,19.02
2018-02-22T05:10:59.712Z,17.17
2018-02-22T05:13:27.267Z,17.60
2018-02-22T05:15:54.784Z,17.65
2018-02-22T05:18:22.294Z,16.92
2018-02-22T05:20:49.820Z,17.30
2018-02-22T05:23:17.479Z,17.42
2018-02-22T05:25:45.008Z,18.65
2018-02-22T05:28:12.518Z,17.98
2018-02-22T05:30:47.619Z,19.37
2018-02-22T05:33:15.173Z,17.87
2018-02-22T05:35:42.694Z,20.20
2018-02-22T05:38:11.035Z,18.87
2018-02-22T05:40:38.539Z,18.87
2018-02-22T05:43:06.840Z,20.02
2018-02-22T05:45:34.366Z,21.40
2018-02-22T05:48:02.677Z,21.58
2018-02-22T05:50:30.190Z,20.95
2018-02-22T05:52:57.711Z,18.42
2018-02-22T05:55:25.244Z,18.70
2018-02-22T05:57:52.760Z,19.98
2018-02-22T06:00:20.294Z,20.08
2018-02-22T06:02:47.864Z,17.73
2018-02-22T06:05:15.390Z,19.85
2018-02-22T06:07:42.949Z,20.80
2018-02-22T06:10:10.463Z,19.37
2018-02-22T06:12:38.790Z,17.95
2018-02-22T06:15:06.356Z,15.95
2018-02-22T06:17:33.916Z,20.50
2018-02-22T06:20:01.489Z,18.10
2018-02-22T06:22:30.512Z,17.92
2018-02-22T06:24:58.037Z,18.83
2018-02-22T06:27:25.689Z,19.20
2018-02-22T06:29:53.209Z,19.12
2018-02-22T06:32:21.486Z,19.42
2018-02-22T06:34:49.786Z,17.73
2018-02-22T06:37:18.078Z,20.95
2018-02-22T06:39:45.608Z,19.02
2018-02-22T06:42:13.160Z,19.65
2018-02-22T06:44:41.495Z,19.17
2018-02-22T06:47:09.024Z,22.80
2018-02-22T06:49:36.609Z,22.55
2018-02-22T06:52:04.157Z,20.88
2018-02-22T06:54:31.679Z,21.45
2018-02-22T06:56:59.990Z,25.45
2018-02-22T06:59:27.511Z,22.50
2018-02-22T07:01:55.086Z,24.67
2018-02-22T07:04:23.385Z,22.58
2018-02-22T07:06:50.899Z,23.85
2018-02-22T07:09:18.417Z,24.90
2018-02-22T07:11:45.929Z,26.87
2018-02-22T07:14:14.236Z,25.25
2018-02-22T07:16:42.027Z,23.27
2018-02-22T07:19:09.685Z,26.08
2018-02-22T07:21:37.218Z,25.80
2018-02-22T07:24:05.482Z,25.67
2018-02-22T07:26:33.751Z,22.75
2018-02-22T07:29:02.062Z,26.73
2018-02-22T07:31:29.573Z,23.05
2018-02-22T07:33:57.193Z,24.12
2018-02-22T07:36:24.708Z,23.70
2018-02-22T07:38:53.323Z,24.08
2018-02-22T07:41:20.877Z,23.73
2018-02-22T07:43:48.486Z,25.27
2018-02-22T07:46:17.463Z,21.87
2018-02-22T07:48:44.984Z,25.95
2018-02-22T07:51:13.282Z,20.65
2018-02-22T07:53:40.780Z,20.67
2018-02-22T07:56:08.363Z,25.15
2018-02-22T07:58:36.647Z,21.40
2018-02-22T08:01:04.914Z,20.70
2018-02-22T08:03:32.427Z,20.37
2018-02-22T08:05:59.928Z,19.73
2018-02-22T08:08:28.311Z,22.05
2018-02-22T08:10:55.818Z,22.83
2018-02-22T08:13:23.348Z,20.42
2018-02-22T08:15:50.944Z,24.10
2018-02-22T08:18:18.452Z,22.95
2018-02-22T08:20:45.993Z,21.17
2018-02-22T08:23:13.511Z,22.92
2018-02-22T08:25:41.081Z,22.08
2018-02-22T08:28:08.625Z,21.00
2018-02-22T08:30:36.191Z,24.00
2018-02-22T08:33:03.748Z,23.40
2018-02-22T08:35:31.253Z,20.80
2018-02-22T08:37:58.795Z,23.10
2018-02-22T08:40:26.348Z,22.10
2018-02-22T08:42:53.899Z,22.48
2018-02-22T08:45:21.570Z,23.12
2018-02-22T08:47:49.111Z,22.48
2018-02-22T08:50:16.629Z,21.60
2018-02-22T08:52:44.129Z,20.50
2018-02-22T08:55:11.658Z,19.37
2018-02-22T08:57:39.959Z,19.67
2018-02-22T09:00:07.523Z,19.42
2018-02-22T09:02:35.194Z,21.40
2018-02-22T09:05:02.721Z,18.30
2018-02-22T09:07:31.007Z,19.55
2018-02-22T09:09:59.309Z,18.52
2018-02-22T09:12:26.841Z,16.35
2018-02-22T09:14:55.116Z,15.73
2018-02-22T09:17:23.290Z,17.92
2018-02-22T09:19:50.803Z,17.50
2018-02-22T09:22:18.315Z,17.50
2018-02-22T09:24:45.830Z,16.17
2018-02-22T09:27:13.346Z,15.90
2018-02-22T09:29:40.873Z,15.13
2018-02-22T09:32:08.384Z,16.48
2018-02-22T09:34:35.961Z,17.55
2018-02-22T09:37:03.502Z,15.80
2018-02-22T09:39:31.020Z,15.60
2018-02-22T09:41:59.303Z,16.62
2018-02-22T09:44:26.835Z,14.40
2018-02-22T09:46:54.368Z,15.52
2018-02-22T09:49:21.929Z,14.82
2018-02-22T09:51:49.425Z,15.85
2018-02-22T09:54:17.042Z,14.57
2018-02-22T09:56:44.542Z,13.50
2018-02-22T09:59:12.067Z,14.20
2018-02-22T10:01:39.603Z,15.30
2018-02-22T10:04:07.148Z,13.15
2018-02-22T10:06:34.834Z,12.93
2018-02-22T10:09:02.355Z,9.82
2018-02-22T10:11:30.645Z,9.77
2018-02-22T10:13:59.054Z,10.55
2018-02-22T10:16:26.582Z,11.75
2018-02-22T10:18:54.928Z,9.73
2018-02-22T10:21:22.482Z,9.43
2018-02-22T10:23:49.994Z,12.48
2018-02-22T10:26:17.532Z,11.57
2018-02-22T10:28:45.095Z,9.02
2018-02-22T10:31:13.384Z,10.15
2018-02-22T10:33:40.898Z,9.52
2018-02-22T10:36:08.416Z,10.52
2018-02-22T10:38:35.946Z,11.10
2018-02-22T10:41:04.257Z,10.20
2018-02-22T10:43:31.931Z,10.27
2018-02-22T10:45:59.437Z,9.55
2018-02-22T10:48:26.971Z,10.90
2018-02-22T10:50:54.615Z,9.52
2018-02-22T10:53:22.134Z,9.50
2018-02-22T10:55:50.438Z,13.65
2018-02-22T10:58:17.963Z,11.55
2018-02-22T11:00:51.067Z,11.52
2018-02-22T11:03:18.589Z,11.52
2018-02-22T11:05:46.126Z,10.57
2018-02-22T11:08:14.479Z,10.30
2018-02-22T11:10:42.036Z,13.10
2018-02-22T11:13:09.551Z,10.40
2018-02-22T11:15:37.179Z,15.15
2018-02-22T11:18:04.696Z,11.55
2018-02-22T11:20:33.022Z,12.85
2018-02-22T11:23:00.597Z,12.02
2018-02-22T11:25:28.118Z,11.30
2018-02-22T11:27:55.660Z,11.85
2018-02-22T11:30:23.195Z,11.02
2018-02-22T11:32:51.499Z,14.35
2018-02-22T11:35:19.035Z,12.05
2018-02-22T11:37:46.578Z,13.38
2018-02-22T11:40:14.127Z,12.37
2018-02-22T11:42:41.679Z,12.32
2018-02-22T11:45:09.258Z,14.55
2018-02-22T11:47:36.780Z,12.70
2018-02-22T11:50:04.299Z,12.35
2018-02-22T11:52:32.623Z,11.63
2018-02-22T11:55:00.160Z,12.10
2018-02-22T11:57:28.755Z,11.82
2018-02-22T11:59:56.328Z,11.05
2018-02-22T12:02:23.951Z,10.45
2018-02-22T12:04:51.467Z,11.05
2018-02-22T12:07:18.997Z,12.18
2018-02-22T12:09:46.545Z,12.00
2018-02-22T12:12:14.120Z,13.82
2018-02-22T12:14:41.647Z,12.27
2018-02-22T12:17:09.201Z,12.88
2018-02-22T12:19:37.633Z,14.48
2018-02-22T12:22:05.162Z,11.50
2018-02-22T12:24:32.664Z,12.88
2018-02-22T12:27:00.230Z,11.90
2018-02-22T12:29:27.950Z,12.68
2018-02-22T12:31:55.469Z,12.93
2018-02-22T12:34:23.010Z,13.73
2018-02-22T12:36:50.560Z,12.75
2018-02-22T12:39:18.108Z,13.18
2018-02-22T12:41:45.760Z,12.65
2018-02-22T12:44:13.311Z,11.80
2018-02-22T12:46:40.876Z,12.85
2018-02-22T12:49:08.403Z,12.30
2018-02-22T12:51:36.718Z,11.95
2018-02-22T12:54:04.301Z,11.25
2018-02-22T12:56:31.822Z,12.60
2018-02-22T12:58:59.381Z,12.93
2018-02-22T13:01:26.897Z,11.48
2018-02-22T13:03:54.417Z,11.25
2018-02-22T13:06:21.981Z,13.27
2018-02-22T13:08:49.633Z,14.13
2018-02-22T13:11:17.156Z,14.02
2018-02-22T13:13:45.442Z,14.20
2018-02-22T13:16:13.035Z,13.50
2018-02-22T13:18:40.616Z,11.95
2018-02-22T13:21:08.155Z,12.45
2018-02-22T13:23:35.687Z,12.13
2018-02-22T13:26:03.954Z,11.00
2018-02-22T13:28:32.232Z,12.27
2018-02-22T13:31:00.556Z,11.80
2018-02-22T13:33:39.820Z,11.50
2018-02-22T13:36:07.340Z,10.85
2018-02-22T13:38:46.709Z,9.95
2018-02-22T13:41:14.220Z,8.95
2018-02-22T13:43:41.899Z,10.00
2018-02-22T13:46:09.432Z,10.18
2018-02-22T13:48:49.572Z,9.88
2018-02-22T13:51:17.902Z,9.90
2018-02-22T13:53:45.450Z,10.85
2018-02-22T13:56:24.955Z,9.85
2018-02-22T13:58:52.457Z,8.40
2018-02-22T14:01:31.715Z,9.45
2018-02-22T14:03:59.223Z,9.23
2018-02-22T14:06:27.526Z,9.65
2018-02-22T14:08:55.026Z,10.68
2018-02-22T14:11:22.545Z,9.23
2018-02-22T14:13:50.037Z,9.45
2018-02-22T14:16:17.552Z,9.50
2018-02-22T14:18:45.048Z,7.50
2018-02-22T14:21:12.552Z,7.53
2018-02-22T14:23:40.820Z,8.70
2018-02-22T14:26:09.080Z,8.18
2018-02-22T14:28:36.610Z,8.82
2018-02-22T14:31:04.107Z,10.60
2018-02-22T14:33:32.393Z,8.65
2018-02-22T14:36:00.699Z,9.20
2018-02-22T14:38:28.212Z,8.25
2018-02-22T14:40:55.719Z,7.87
2018-02-22T14:43:23.252Z,8.45
2018-02-22T14:45:50.769Z,8.95
2018-02-22T14:48:18.291Z,10.15
2018-02-22T14:50:45.847Z,9.52
2018-02-22T14:53:13.346Z,9.02
2018-02-22T14:55:40.905Z,9.20
2018-02-22T14:58:08.440Z,8.95
2018-02-22T15:00:36.100Z,8.07
2018-02-22T15:03:03.625Z,7.85
2018-02-22T15:05:31.919Z,8.02
2018-02-22T15:07:59.496Z,8.45
2018-02-22T15:10:26.986Z,8.23
2018-02-22T15:12:54.510Z,9.73
2018-02-22T15:15:22.010Z,7.55
2018-02-22T15:17:49.630Z,7.70
2018-02-22T15:20:17.134Z,7.60
2018-02-22T15:22:44.654Z,9.48
2018-02-22T15:25:12.151Z,8.30
2018-02-22T15:27:39.814Z,9.10
2018-02-22T15:30:07.370Z,9.80
2018-02-22T15:32:34.916Z,10.18
2018-02-22T15:35:03.270Z,7.70
2018-02-22T15:37:30.779Z,8.88
2018-02-22T15:39:58.287Z,8.07
2018-02-22T15:42:25.851Z,33.97
2018-02-22T15:44:54.116Z,8.25
2018-02-22T15:47:21.665Z,8.25
2018-02-22T15:49:49.171Z,9.05
2018-02-22T15:52:16.713Z,11.48
2018-02-22T15:54:44.249Z,10.65
2018-02-22T15:57:11.770Z,11.30
2018-02-22T15:59:39.306Z,13.75
2018-02-22T16:02:06.824Z,9.98
2018-02-22T16:04:34.368Z,12.43
2018-02-22T16:07:02.640Z,12.07
2018-02-22T16:09:30.962Z,12.45
2018-02-22T16:11:58.595Z,10.77
2018-02-22T16:14:26.904Z,10.30
2018-02-22T16:16:54.431Z,10.70
2018-02-22T16:19:21.943Z,11.43
2018-02-22T16:21:49.535Z,10.45
2018-02-22T16:24:17.063Z,13.23
2018-02-22T16:26:44.671Z,10.50
2018-02-22T16:29:12.235Z,11.10
2018-02-22T16:31:40.554Z,11.35
2018-02-22T16:34:08.090Z,11.25
2018-02-22T16:36:35.676Z,12.00
2018-02-22T16:39:03.213Z,10.60
2018-02-22T16:41:30.756Z,11.80
2018-02-22T16:43:59.023Z,10.82
2018-02-22T16:46:27.366Z,12.23
2018-02-22T16:48:54.878Z,12.27
2018-02-22T16:51:22.423Z,12.65
2018-02-22T16:53:50.698Z,12.52
2018-02-22T16:56:18.230Z,13.57
2018-02-22T16:58:45.739Z,12.27
2018-02-22T17:01:13.239Z,12.80
2018-02-22T17:03:40.756Z,12.60
2018-02-22T17:06:08.388Z,11.88
2018-02-22T17:08:36.703Z,11.60
2018-02-22T17:11:04.232Z,13.70
2018-02-22T17:13:31.756Z,11.77
2018-02-22T17:15:59.385Z,11.93
2018-02-22T17:18:27.046Z,10.45
2018-02-22T17:20:54.562Z,10.43
2018-02-22T17:23:22.909Z,10.50
2018-02-22T17:25:56.140Z,11.75
2018-02-22T17:28:29.478Z,15.77
2018-02-22T17:31:02.612Z,13.10
2018-02-22T17:33:30.224Z,12.70
2018-02-22T17:36:03.474Z,11.80
2018-02-22T17:38:36.595Z,13.05
2018-02-22T17:41:07.582Z,17.75
2018-02-22T17:43:35.076Z,15.90
2018-02-22T17:46:03.343Z,18.33
2018-02-22T17:48:30.881Z,18.20
2018-02-22T17:50:58.391Z,12.82
2018-02-22T17:53:26.009Z,12.18
2018-02-22T17:55:53.600Z,11.32
2018-02-22T17:58:21.168Z,10.23
2018-02-22T18:00:48.698Z,11.00
2018-02-22T18:03:16.216Z,12.48
2018-02-22T18:05:43.716Z,15.35
2018-02-22T18:08:11.320Z,11.52
2018-02-22T18:10:38.821Z,9.20
2018-02-22T18:13:06.390Z,11.48
2018-02-22T18:15:33.964Z,9.73
2018-02-22T18:18:01.472Z,12.32
2018-02-22T18:20:29.016Z,11.88
2018-02-22T18:22:56.528Z,9.90
2018-02-22T18:25:24.042Z,11.52
2018-02-22T18:27:51.540Z,12.43
2018-02-22T18:30:19.159Z,11.40
2018-02-22T18:32:46.672Z,12.65
2018-02-22T18:35:14.193Z,11.02
2018-02-22T18:37:47.321Z,11.35
2018-02-22T18:40:20.414Z,10.30
2018-02-22T18:42:49.718Z,11.32
2018-02-22T18:45:17.217Z,11.35
2018-02-22T18:47:44.908Z,12.00
2018-02-22T18:50:12.462Z,9.88
2018-02-22T18:52:39.973Z,9.40
2018-02-22T18:55:08.262Z,9.40
2018-02-22T18:57:35.770Z,9.98
2018-02-22T19:00:03.446Z,8.57
2018-02-22T19:02:30.979Z,13.50
2018-02-22T19:04:58.525Z,10.25
2018-02-22T19:07:26.072Z,9.90
2018-02-22T19:09:53.614Z,9.50
2018-02-22T19:12:21.128Z,9.15
2018-02-22T19:14:48.620Z,8.32
2018-02-22T19:17:16.903Z,10.93
2018-02-22T19:19:45.221Z,9.45
2018-02-22T19:22:12.944Z,7.53
2018-02-22T19:24:40.595Z,8.48
2018-02-22T19:27:09.046Z,7.47
2018-02-22T19:29:36.553Z,7.25
2018-02-22T19:32:04.875Z,8.52
2018-02-22T19:34:32.378Z,8.80
2018-02-22T19:37:00.678Z,7.70
2018-02-22T19:39:28.970Z,7.95
2018-02-22T19:41:56.480Z,7.15
2018-02-22T19:44:23.998Z,6.12
2018-02-22T19:46:51.527Z,7.57
2018-02-22T19:49:19.803Z,7.18
2018-02-22T19:51:48.066Z,7.97
2018-02-22T19:54:15.694Z,8.32
2018-02-22T19:56:43.278Z,8.35
2018-02-22T19:59:10.776Z,8.05
2018-02-22T20:01:38.311Z,9.25
2018-02-22T20:04:06.600Z,7.45
2018-02-22T20:06:34.894Z,7.22
2018-02-22T20:09:02.413Z,8.25
2018-02-22T20:11:29.927Z,7.40
2018-02-22T20:13:57.444Z,6.50
2018-02-22T20:16:25.856Z,8.52
2018-02-22T20:18:53.366Z,7.20
2018-02-22T20:21:20.912Z,7.18
2018-02-22T20:23:48.411Z,8.80
2018-02-22T20:26:16.000Z,8.63
2018-02-22T20:28:43.526Z,8.57
2018-02-22T20:31:11.216Z,7.43
2018-02-22T20:33:38.741Z,8.02
2018-02-22T20:36:07.024Z,9.23
2018-02-22T20:38:35.292Z,7.60
2018-02-22T20:41:03.607Z,8.52
2018-02-22T20:43:31.125Z,8.75
2018-02-22T20:45:58.727Z,7.78
2018-02-22T20:48:26.232Z,8.02
2018-02-22T20:50:53.744Z,8.65
2018-02-22T20:53:23.152Z,9.32
2018-02-22T20:55:50.677Z,8.80
2018-02-22T20:58:18.185Z,8.05
2018-02-22T21:00:45.711Z,8.52
2018-02-22T21:03:13.697Z,9.10
2018-02-22T21:05:41.193Z,9.63
2018-02-22T21:08:08.710Z,9.02
2018-02-22T21:10:36.309Z,8.80
2018-02-22T21:13:03.821Z,11.05
2018-02-22T21:15:31.329Z,8.70
2018-02-22T21:17:58.875Z,10.10
2018-02-22T21:20:26.395Z,11.95
2018-02-22T21:22:54.672Z,8.80
2018-02-22T21:25:22.944Z,9.93
2018-02-22T21:27:52.361Z,9.70
2018-02-22T21:30:19.879Z,11.48
2018-02-22T21:32:47.392Z,11.05
2018-02-22T21:35:15.008Z,11.50
2018-02-22T21:37:43.287Z,9.65
2018-02-22T21:40:10.853Z,11.43
2018-02-22T21:42:38.401Z,12.75
2018-02-22T21:45:05.940Z,13.57
2018-02-22T21:47:33.466Z,13.85
2018-02-22T21:50:00.973Z,11.73
2018-02-22T21:52:28.551Z,11.02
2018-02-22T21:54:56.058Z,13.40
2018-02-22T21:57:23.634Z,16.30
2018-02-22T21:59:51.141Z,12.95
2018-02-22T22:02:18.649Z,11.40
2018-02-22T22:04:46.160Z,12.93
2018-02-22T22:07:14.709Z,14.45
2018-02-22T22:09:42.231Z,14.77
2018-02-22T22:12:09.899Z,13.62
2018-02-22T22:14:37.453Z,13.73
2018-02-22T22:17:04.973Z,13.98
2018-02-22T22:19:32.474Z,15.73
2018-02-22T22:21:59.998Z,15.30
2018-02-22T22:24:28.274Z,16.17
2018-02-22T22:26:55.837Z,16.85
2018-02-22T22:29:24.143Z,16.02
2018-02-22T22:31:51.707Z,15.00
2018-02-22T22:34:19.243Z,13.65
2018-02-22T22:36:46.808Z,16.00
2018-02-22T22:39:14.329Z,17.45
2018-02-22T22:41:41.867Z,19.05
2018-02-22T22:44:09.470Z,14.57
2018-02-22T22:46:36.988Z,16.27
2018-02-22T22:49:04.500Z,16.92
2018-02-22T22:51:32.758Z,16.60
2018-02-22T22:54:01.052Z,14.98
2018-02-22T22:56:29.366Z,16.40
2018-02-22T22:58:56.867Z,16.87
2018-02-22T23:01:24.411Z,16.00
2018-02-22T23:03:51.895Z,18.02
2018-02-22T23:06:20.170Z,15.68
2018-02-22T23:08:48.466Z,13.32
2018-02-22T23:11:15.977Z,13.50
2018-02-22T23:13:43.560Z,12.68
2018-02-22T23:16:11.856Z,15.20
2018-02-22T23:18:40.131Z,12.35
2018-02-22T23:21:08.446Z,13.48
2018-02-22T23:23:35.982Z,12.48
2018-02-22T23:26:03.531Z,12.82
2018-02-22T23:28:31.821Z,14.20
2018-02-22T23:30:59.331Z,14.65
2018-02-22T23:33:26.954Z,14.10
2018-02-22T23:35:54.512Z,13.93
2018-02-22T23:38:22.037Z,14.55
2018-02-22T23:40:50.436Z,13.93
2018-02-22T23:43:17.959Z,12.07
2018-02-22T23:45:45.486Z,11.23
2018-02-22T23:48:13.034Z,16.17
2018-02-22T23:50:40.548Z,14.75
2018-02-22T23:53:08.093Z,16.23
2018-02-22T23:55:35.689Z,15.65
2018-02-22T23:58:03.188Z,12.40
